sensor_id;sensor_type;location;lat;lon;timestamp;temperature;humidity
14397;DHT22;50653;47.810;13.022;2022-10-16T00:01:08;15.50;99.90
14397;DHT22;50653;47.810;13.022;2022-10-16T00:03:36;15.50;99.90
14397;DHT22;50653;47.810;13.022;2022-10-16T00:06:02;15.50;99.90
14397;DHT22;50653;47.810;13.022;2022-10-16T00:08:29;15.50;99.90
14397;DHT22;50653;47.810;13.022;2022-10-16T00:11:25;15.60;99.90
14397;DHT22;50653;47.810;13.022;2022-10-16T00:13:51;15.60;99.90
14397;DHT22;50653;47.810;13.022;2022-10-16T00:16:18;15.60;99.90
14397;DHT22;50653;47.810;13.022;2022-10-16T00:18:45;15.60;99.90
14397;DHT22;50653;47.810;13.022;2022-10-16T00:21:13;15.70;99.90
14397;DHT22;50653;47.810;13.022;2022-10-16T00:23:39;15.60;99.90
14397;DHT22;50653;47.810;13.022;2022-10-16T00:26:09;15.60;99.90
14397;DHT22;50653;47.810;13.022;2022-10-16T00:28:35;15.70;99.90
14397;DHT22;50653;47.810;13.022;2022-10-16T00:31:05;15.60;99.90
14397;DHT22;50653;47.810;13.022;2022-10-16T00:33:33;15.70;99.90
14397;DHT22;50653;47.810;13.022;2022-10-16T00:35:59;15.60;99.90
14397;DHT22;50653;47.810;13.022;2022-10-16T00:38:26;15.70;99.90
14397;DHT22;50653;47.810;13.022;2022-10-16T00:40:51;15.70;99.90
14397;DHT22;50653;47.810;13.022;2022-10-16T00:43:49;15.60;99.90
14397;DHT22;50653;47.810;13.022;2022-10-16T00:46:44;15.50;99.90
14397;DHT22;50653;47.810;13.022;2022-10-16T00:49:15;15.50;99.90
14397;DHT22;50653;47.810;13.022;2022-10-16T00:51:47;15.60;99.90
14397;DHT22;50653;47.810;13.022;2022-10-16T00:54:17;15.60;99.90
14397;DHT22;50653;47.810;13.022;2022-10-16T00:56:46;15.50;99.90
14397;DHT22;50653;47.810;13.022;2022-10-16T00:59:35;15.60;99.90
14397;DHT22;50653;47.810;13.022;2022-10-16T01:02:02;15.50;99.90
14397;DHT22;50653;47.810;13.022;2022-10-16T01:04:34;15.60;99.90
14397;DHT22;50653;47.810;13.022;2022-10-16T01:10:11;15.50;99.90
14397;DHT22;50653;47.810;13.022;2022-10-16T01:15:55;15.50;99.90
14397;DHT22;50653;47.810;13.022;2022-10-16T01:18:36;15.50;99.90
14397;DHT22;50653;47.810;13.022;2022-10-16T01:21:06;15.40;99.90
14397;DHT22;50653;47.810;13.022;2022-10-16T01:23:51;15.40;99.90
14397;DHT22;50653;47.810;13.022;2022-10-16T01:28:55;15.40;99.90
14397;DHT22;50653;47.810;13.022;2022-10-16T01:31:25;15.40;99.90
14397;DHT22;50653;47.810;13.022;2022-10-16T01:34:03;15.40;99.90
14397;DHT22;50653;47.810;13.022;2022-10-16T01:36:42;15.30;99.90
14397;DHT22;50653;47.810;13.022;2022-10-16T01:39:10;15.30;99.90
14397;DHT22;50653;47.810;13.022;2022-10-16T01:41:41;15.20;99.90
14397;DHT22;50653;47.810;13.022;2022-10-16T01:44:18;15.30;99.90
14397;DHT22;50653;47.810;13.022;2022-10-16T01:46:48;15.20;99.90
14397;DHT22;50653;47.810;13.022;2022-10-16T01:49:16;15.30;99.90
14397;DHT22;50653;47.810;13.022;2022-10-16T01:51:45;15.30;99.90
14397;DHT22;50653;47.810;13.022;2022-10-16T01:54:13;15.30;99.90
14397;DHT22;50653;47.810;13.022;2022-10-16T01:56:41;15.30;99.90
14397;DHT22;50653;47.810;13.022;2022-10-16T01:59:11;15.30;99.90
14397;DHT22;50653;47.810;13.022;2022-10-16T02:01:40;15.20;99.90
14397;DHT22;50653;47.810;13.022;2022-10-16T02:04:20;15.20;99.90
14397;DHT22;50653;47.810;13.022;2022-10-16T02:06:47;15.30;99.90
14397;DHT22;50653;47.810;13.022;2022-10-16T02:09:13;15.30;99.90
14397;DHT22;50653;47.810;13.022;2022-10-16T02:11:41;15.20;99.90
14397;DHT22;50653;47.810;13.022;2022-10-16T02:14:07;15.20;99.90
14397;DHT22;50653;47.810;13.022;2022-10-16T02:16:35;15.10;99.90
14397;DHT22;50653;47.810;13.022;2022-10-16T02:19:01;15.10;99.90
14397;DHT22;50653;47.810;13.022;2022-10-16T02:21:32;15.00;99.90
14397;DHT22;50653;47.810;13.022;2022-10-16T02:27:12;15.10;99.90
14397;DHT22;50653;47.810;13.022;2022-10-16T02:29:41;15.10;99.90
14397;DHT22;50653;47.810;13.022;2022-10-16T02:32:11;15.10;99.90
14397;DHT22;50653;47.810;13.022;2022-10-16T02:34:39;15.20;99.90
14397;DHT22;50653;47.810;13.022;2022-10-16T02:37:05;15.10;99.90
14397;DHT22;50653;47.810;13.022;2022-10-16T02:39:32;15.10;99.90
14397;DHT22;50653;47.810;13.022;2022-10-16T02:41:59;15.10;99.90
14397;DHT22;50653;47.810;13.022;2022-10-16T02:44:25;15.00;99.90
14397;DHT22;50653;47.810;13.022;2022-10-16T02:46:50;15.00;99.90
14397;DHT22;50653;47.810;13.022;2022-10-16T02:49:16;15.10;99.90
14397;DHT22;50653;47.810;13.022;2022-10-16T02:51:42;15.00;99.90
14397;DHT22;50653;47.810;13.022;2022-10-16T02:54:07;15.10;99.90
14397;DHT22;50653;47.810;13.022;2022-10-16T02:56:33;15.00;99.90
14397;DHT22;50653;47.810;13.022;2022-10-16T02:58:59;15.00;99.90
14397;DHT22;50653;47.810;13.022;2022-10-16T03:01:24;15.00;99.90
14397;DHT22;50653;47.810;13.022;2022-10-16T03:03:50;15.00;99.90
14397;DHT22;50653;47.810;13.022;2022-10-16T03:06:16;15.00;99.90
14397;DHT22;50653;47.810;13.022;2022-10-16T03:08:41;15.00;99.90
14397;DHT22;50653;47.810;13.022;2022-10-16T03:11:07;15.00;99.90
14397;DHT22;50653;47.810;13.022;2022-10-16T03:13:33;15.10;99.90
14397;DHT22;50653;47.810;13.022;2022-10-16T03:15:58;15.10;99.90
14397;DHT22;50653;47.810;13.022;2022-10-16T03:18:24;15.00;99.90
14397;DHT22;50653;47.810;13.022;2022-10-16T03:20:50;15.00;99.90
14397;DHT22;50653;47.810;13.022;2022-10-16T03:23:15;15.00;99.90
14397;DHT22;50653;47.810;13.022;2022-10-16T03:25:41;15.00;99.90
14397;DHT22;50653;47.810;13.022;2022-10-16T03:28:07;15.00;99.90
14397;DHT22;50653;47.810;13.022;2022-10-16T03:30:32;15.00;99.90
14397;DHT22;50653;47.810;13.022;2022-10-16T03:32:58;15.00;99.90
14397;DHT22;50653;47.810;13.022;2022-10-16T03:35:24;15.00;99.90
14397;DHT22;50653;47.810;13.022;2022-10-16T03:37:50;15.00;99.90
14397;DHT22;50653;47.810;13.022;2022-10-16T03:40:16;15.00;99.90
14397;DHT22;50653;47.810;13.022;2022-10-16T03:42:43;15.00;99.90
14397;DHT22;50653;47.810;13.022;2022-10-16T03:45:09;15.00;99.90
14397;DHT22;50653;47.810;13.022;2022-10-16T03:47:35;15.00;99.90
14397;DHT22;50653;47.810;13.022;2022-10-16T03:50:01;15.00;99.90
14397;DHT22;50653;47.810;13.022;2022-10-16T03:52:27;14.90;99.90
14397;DHT22;50653;47.810;13.022;2022-10-16T03:54:53;14.90;99.90
14397;DHT22;50653;47.810;13.022;2022-10-16T03:57:18;14.90;99.90
14397;DHT22;50653;47.810;13.022;2022-10-16T03:59:44;14.90;99.90
14397;DHT22;50653;47.810;13.022;2022-10-16T04:02:10;14.90;99.90
14397;DHT22;50653;47.810;13.022;2022-10-16T04:04:35;14.90;99.90
14397;DHT22;50653;47.810;13.022;2022-10-16T04:07:01;14.90;99.90
14397;DHT22;50653;47.810;13.022;2022-10-16T04:09:27;14.90;99.90
14397;DHT22;50653;47.810;13.022;2022-10-16T04:11:53;14.90;99.90
14397;DHT22;50653;47.810;13.022;2022-10-16T04:14:18;14.80;99.90
14397;DHT22;50653;47.810;13.022;2022-10-16T04:16:44;14.80;99.90
14397;DHT22;50653;47.810;13.022;2022-10-16T04:19:10;14.90;99.90
14397;DHT22;50653;47.810;13.022;2022-10-16T04:21:36;14.80;99.90
14397;DHT22;50653;47.810;13.022;2022-10-16T04:24:02;14.70;99.90
14397;DHT22;50653;47.810;13.022;2022-10-16T04:26:28;14.70;99.90
14397;DHT22;50653;47.810;13.022;2022-10-16T04:28:54;14.80;99.90
14397;DHT22;50653;47.810;13.022;2022-10-16T04:31:20;14.70;99.90
14397;DHT22;50653;47.810;13.022;2022-10-16T04:33:46;14.70;99.90
14397;DHT22;50653;47.810;13.022;2022-10-16T04:36:12;14.70;99.90
14397;DHT22;50653;47.810;13.022;2022-10-16T04:38:38;14.70;99.90
14397;DHT22;50653;47.810;13.022;2022-10-16T04:41:06;14.70;99.90
14397;DHT22;50653;47.810;13.022;2022-10-16T04:43:32;14.60;99.90
14397;DHT22;50653;47.810;13.022;2022-10-16T04:45:58;14.60;99.90
14397;DHT22;50653;47.810;13.022;2022-10-16T04:48:23;14.70;99.90
14397;DHT22;50653;47.810;13.022;2022-10-16T04:50:49;14.70;99.90
14397;DHT22;50653;47.810;13.022;2022-10-16T04:53:14;14.70;99.90
14397;DHT22;50653;47.810;13.022;2022-10-16T04:55:41;14.70;99.90
14397;DHT22;50653;47.810;13.022;2022-10-16T04:58:07;14.70;99.90
14397;DHT22;50653;47.810;13.022;2022-10-16T05:00:33;14.60;99.90
14397;DHT22;50653;47.810;13.022;2022-10-16T05:02:59;14.70;99.90
14397;DHT22;50653;47.810;13.022;2022-10-16T05:05:26;14.60;99.90
14397;DHT22;50653;47.810;13.022;2022-10-16T05:07:52;14.60;99.90
14397;DHT22;50653;47.810;13.022;2022-10-16T05:10:18;14.60;99.90
14397;DHT22;50653;47.810;13.022;2022-10-16T05:12:44;14.70;99.90
14397;DHT22;50653;47.810;13.022;2022-10-16T05:15:10;14.60;99.90
14397;DHT22;50653;47.810;13.022;2022-10-16T05:17:36;14.50;99.90
14397;DHT22;50653;47.810;13.022;2022-10-16T05:20:02;14.40;99.90
14397;DHT22;50653;47.810;13.022;2022-10-16T05:22:28;14.50;99.90
14397;DHT22;50653;47.810;13.022;2022-10-16T05:24:54;14.50;99.90
14397;DHT22;50653;47.810;13.022;2022-10-16T05:27:20;14.50;99.90
14397;DHT22;50653;47.810;13.022;2022-10-16T05:29:46;14.50;99.90
14397;DHT22;50653;47.810;13.022;2022-10-16T05:32:13;14.50;99.90
14397;DHT22;50653;47.810;13.022;2022-10-16T05:34:39;14.50;99.90
14397;DHT22;50653;47.810;13.022;2022-10-16T05:37:05;14.50;99.90
14397;DHT22;50653;47.810;13.022;2022-10-16T05:39:31;14.50;99.90
14397;DHT22;50653;47.810;13.022;2022-10-16T05:41:56;14.60;99.90
14397;DHT22;50653;47.810;13.022;2022-10-16T05:44:22;14.60;99.90
14397;DHT22;50653;47.810;13.022;2022-10-16T05:46:48;14.50;99.90
14397;DHT22;50653;47.810;13.022;2022-10-16T05:49:13;14.60;99.90
14397;DHT22;50653;47.810;13.022;2022-10-16T05:51:39;14.60;99.90
14397;DHT22;50653;47.810;13.022;2022-10-16T05:54:05;14.50;99.90
14397;DHT22;50653;47.810;13.022;2022-10-16T05:56:31;14.50;99.90
14397;DHT22;50653;47.810;13.022;2022-10-16T05:58:56;14.50;99.90
14397;DHT22;50653;47.810;13.022;2022-10-16T06:01:22;14.50;99.90
14397;DHT22;50653;47.810;13.022;2022-10-16T06:03:50;14.50;99.90
14397;DHT22;50653;47.810;13.022;2022-10-16T06:06:18;14.50;99.90
14397;DHT22;50653;47.810;13.022;2022-10-16T06:08:45;14.50;99.90
14397;DHT22;50653;47.810;13.022;2022-10-16T06:11:14;14.50;99.90
14397;DHT22;50653;47.810;13.022;2022-10-16T06:13:40;14.60;99.90
14397;DHT22;50653;47.810;13.022;2022-10-16T06:16:09;14.60;99.90
14397;DHT22;50653;47.810;13.022;2022-10-16T06:18:35;14.60;99.90
14397;DHT22;50653;47.810;13.022;2022-10-16T06:21:11;14.50;99.90
14397;DHT22;50653;47.810;13.022;2022-10-16T06:23:36;14.60;99.90
14397;DHT22;50653;47.810;13.022;2022-10-16T06:26:10;14.60;99.90
14397;DHT22;50653;47.810;13.022;2022-10-16T06:28:36;14.60;99.90
14397;DHT22;50653;47.810;13.022;2022-10-16T06:31:03;14.50;99.90
14397;DHT22;50653;47.810;13.022;2022-10-16T06:33:29;14.60;99.90
14397;DHT22;50653;47.810;13.022;2022-10-16T06:36:01;14.60;99.90
14397;DHT22;50653;47.810;13.022;2022-10-16T06:38:26;14.60;99.90
14397;DHT22;50653;47.810;13.022;2022-10-16T06:40:53;14.60;99.90
14397;DHT22;50653;47.810;13.022;2022-10-16T06:43:19;14.60;99.90
14397;DHT22;50653;47.810;13.022;2022-10-16T06:45:51;14.60;99.90
14397;DHT22;50653;47.810;13.022;2022-10-16T06:48:17;14.70;99.90
14397;DHT22;50653;47.810;13.022;2022-10-16T06:50:42;14.70;99.90
14397;DHT22;50653;47.810;13.022;2022-10-16T06:53:08;14.60;99.90
14397;DHT22;50653;47.810;13.022;2022-10-16T06:55:33;14.60;99.90
14397;DHT22;50653;47.810;13.022;2022-10-16T06:57:59;14.60;99.90
14397;DHT22;50653;47.810;13.022;2022-10-16T07:00:24;14.70;99.90
14397;DHT22;50653;47.810;13.022;2022-10-16T07:02:50;14.70;99.90
14397;DHT22;50653;47.810;13.022;2022-10-16T07:05:16;14.80;99.90
14397;DHT22;50653;47.810;13.022;2022-10-16T07:07:42;14.80;99.90
14397;DHT22;50653;47.810;13.022;2022-10-16T07:10:08;14.80;99.90
14397;DHT22;50653;47.810;13.022;2022-10-16T07:12:33;14.80;99.90
14397;DHT22;50653;47.810;13.022;2022-10-16T07:14:59;14.90;99.90
14397;DHT22;50653;47.810;13.022;2022-10-16T07:17:24;15.00;99.90
14397;DHT22;50653;47.810;13.022;2022-10-16T07:19:50;15.00;99.90
14397;DHT22;50653;47.810;13.022;2022-10-16T07:22:18;15.00;99.90
14397;DHT22;50653;47.810;13.022;2022-10-16T07:24:44;15.00;99.90
14397;DHT22;50653;47.810;13.022;2022-10-16T07:27:10;15.10;99.90
14397;DHT22;50653;47.810;13.022;2022-10-16T07:29:35;15.20;99.90
14397;DHT22;50653;47.810;13.022;2022-10-16T07:32:01;15.20;99.90
14397;DHT22;50653;47.810;13.022;2022-10-16T07:34:27;15.20;99.90
14397;DHT22;50653;47.810;13.022;2022-10-16T07:36:53;15.30;99.90
14397;DHT22;50653;47.810;13.022;2022-10-16T07:39:18;15.30;99.90
14397;DHT22;50653;47.810;13.022;2022-10-16T07:41:44;15.30;99.90
14397;DHT22;50653;47.810;13.022;2022-10-16T07:44:10;15.30;99.90
14397;DHT22;50653;47.810;13.022;2022-10-16T07:46:36;15.40;99.90
14397;DHT22;50653;47.810;13.022;2022-10-16T07:49:02;15.40;99.90
14397;DHT22;50653;47.810;13.022;2022-10-16T07:51:28;15.40;99.90
14397;DHT22;50653;47.810;13.022;2022-10-16T07:53:54;15.40;99.90
14397;DHT22;50653;47.810;13.022;2022-10-16T07:56:21;15.40;99.90
14397;DHT22;50653;47.810;13.022;2022-10-16T07:58:47;15.50;99.90
14397;DHT22;50653;47.810;13.022;2022-10-16T08:01:15;15.60;99.90
14397;DHT22;50653;47.810;13.022;2022-10-16T08:03:43;15.60;99.90
14397;DHT22;50653;47.810;13.022;2022-10-16T08:06:09;15.80;99.90
14397;DHT22;50653;47.810;13.022;2022-10-16T08:08:34;15.70;99.90
14397;DHT22;50653;47.810;13.022;2022-10-16T08:11:00;15.80;99.90
14397;DHT22;50653;47.810;13.022;2022-10-16T08:13:29;15.80;99.90
14397;DHT22;50653;47.810;13.022;2022-10-16T08:15:54;15.80;99.90
14397;DHT22;50653;47.810;13.022;2022-10-16T08:18:21;15.90;99.90
14397;DHT22;50653;47.810;13.022;2022-10-16T08:20:47;15.90;99.90
14397;DHT22;50653;47.810;13.022;2022-10-16T08:23:12;15.90;99.90
14397;DHT22;50653;47.810;13.022;2022-10-16T08:25:39;15.90;99.90
14397;DHT22;50653;47.810;13.022;2022-10-16T08:28:06;16.00;99.90
14397;DHT22;50653;47.810;13.022;2022-10-16T08:30:32;16.10;99.90
14397;DHT22;50653;47.810;13.022;2022-10-16T08:32:58;16.20;99.90
14397;DHT22;50653;47.810;13.022;2022-10-16T08:35:24;16.10;99.90
14397;DHT22;50653;47.810;13.022;2022-10-16T08:37:50;16.10;99.90
14397;DHT22;50653;47.810;13.022;2022-10-16T08:40:24;16.10;99.90
14397;DHT22;50653;47.810;13.022;2022-10-16T08:51:04;16.40;99.90
14397;DHT22;50653;47.810;13.022;2022-10-16T08:53:44;16.50;99.90
14397;DHT22;50653;47.810;13.022;2022-10-16T08:56:11;16.50;99.90
14397;DHT22;50653;47.810;13.022;2022-10-16T08:58:37;16.50;99.90
14397;DHT22;50653;47.810;13.022;2022-10-16T09:01:11;16.60;99.90
14397;DHT22;50653;47.810;13.022;2022-10-16T09:03:49;16.80;99.90
14397;DHT22;50653;47.810;13.022;2022-10-16T09:06:52;16.70;99.90
14397;DHT22;50653;47.810;13.022;2022-10-16T09:12:08;16.80;99.90
14397;DHT22;50653;47.810;13.022;2022-10-16T09:22:45;16.70;99.90
14397;DHT22;50653;47.810;13.022;2022-10-16T09:25:16;16.70;99.90
14397;DHT22;50653;47.810;13.022;2022-10-16T09:27:44;16.70;99.90
14397;DHT22;50653;47.810;13.022;2022-10-16T09:30:19;16.80;99.90
14397;DHT22;50653;47.810;13.022;2022-10-16T09:32:48;17.00;99.90
14397;DHT22;50653;47.810;13.022;2022-10-16T09:35:21;17.00;99.90
14397;DHT22;50653;47.810;13.022;2022-10-16T09:37:49;17.10;99.90
14397;DHT22;50653;47.810;13.022;2022-10-16T09:40:30;17.10;99.90
14397;DHT22;50653;47.810;13.022;2022-10-16T09:45:29;17.10;99.90
14397;DHT22;50653;47.810;13.022;2022-10-16T09:47:54;17.00;99.90
14397;DHT22;50653;47.810;13.022;2022-10-16T09:50:31;17.10;99.90
14397;DHT22;50653;47.810;13.022;2022-10-16T09:53:24;17.20;99.90
14397;DHT22;50653;47.810;13.022;2022-10-16T09:55:52;17.20;99.90
14397;DHT22;50653;47.810;13.022;2022-10-16T09:58:21;17.20;99.90
14397;DHT22;50653;47.810;13.022;2022-10-16T10:00:53;17.20;99.90
14397;DHT22;50653;47.810;13.022;2022-10-16T10:03:35;17.40;99.90
14397;DHT22;50653;47.810;13.022;2022-10-16T10:06:35;17.40;99.90
14397;DHT22;50653;47.810;13.022;2022-10-16T10:11:55;17.50;99.90
14397;DHT22;50653;47.810;13.022;2022-10-16T10:14:40;17.50;99.90
14397;DHT22;50653;47.810;13.022;2022-10-16T10:17:14;17.50;99.90
14397;DHT22;50653;47.810;13.022;2022-10-16T10:19:53;17.50;99.90
14397;DHT22;50653;47.810;13.022;2022-10-16T10:22:24;17.50;99.90
14397;DHT22;50653;47.810;13.022;2022-10-16T10:24:59;17.60;99.90
14397;DHT22;50653;47.810;13.022;2022-10-16T10:30:29;17.80;99.90
14397;DHT22;50653;47.810;13.022;2022-10-16T10:33:22;17.80;99.90
14397;DHT22;50653;47.810;13.022;2022-10-16T10:35:54;17.70;99.90
14397;DHT22;50653;47.810;13.022;2022-10-16T10:38:40;17.80;99.90
14397;DHT22;50653;47.810;13.022;2022-10-16T10:47:05;17.90;99.90
14397;DHT22;50653;47.810;13.022;2022-10-16T10:55:39;18.00;99.90
14397;DHT22;50653;47.810;13.022;2022-10-16T11:01:14;18.00;99.90
14397;DHT22;50653;47.810;13.022;2022-10-16T11:06:30;17.80;99.90
14397;DHT22;50653;47.810;13.022;2022-10-16T11:09:07;17.90;99.90
14397;DHT22;50653;47.810;13.022;2022-10-16T11:11:43;17.90;99.90
14397;DHT22;50653;47.810;13.022;2022-10-16T11:19:51;18.10;99.90
14397;DHT22;50653;47.810;13.022;2022-10-16T11:22:36;18.10;99.90
14397;DHT22;50653;47.810;13.022;2022-10-16T11:27:50;17.90;99.90
14397;DHT22;50653;47.810;13.022;2022-10-16T11:30:32;18.00;99.90
14397;DHT22;50653;47.810;13.022;2022-10-16T11:33:22;18.10;99.90
14397;DHT22;50653;47.810;13.022;2022-10-16T11:36:12;18.10;99.90
14397;DHT22;50653;47.810;13.022;2022-10-16T11:41:48;18.40;99.90
14397;DHT22;50653;47.810;13.022;2022-10-16T11:44:27;18.40;99.90
14397;DHT22;50653;47.810;13.022;2022-10-16T11:49:32;18.40;99.90
14397;DHT22;50653;47.810;13.022;2022-10-16T11:52:11;18.30;99.90
14397;DHT22;50653;47.810;13.022;2022-10-16T11:54:45;18.30;99.90
14397;DHT22;50653;47.810;13.022;2022-10-16T11:57:28;18.30;99.90
14397;DHT22;50653;47.810;13.022;2022-10-16T11:59:56;18.40;99.90
14397;DHT22;50653;47.810;13.022;2022-10-16T12:10:37;18.50;99.90
14397;DHT22;50653;47.810;13.022;2022-10-16T12:16:27;18.70;99.90
14397;DHT22;50653;47.810;13.022;2022-10-16T12:19:16;18.60;99.90
14397;DHT22;50653;47.810;13.022;2022-10-16T12:21:43;18.60;99.90
14397;DHT22;50653;47.810;13.022;2022-10-16T12:24:50;18.60;99.90
14397;DHT22;50653;47.810;13.022;2022-10-16T12:27:30;18.70;99.90
14397;DHT22;50653;47.810;13.022;2022-10-16T12:30:00;18.70;99.90
14397;DHT22;50653;47.810;13.022;2022-10-16T12:32:30;18.70;99.90
14397;DHT22;50653;47.810;13.022;2022-10-16T12:34:57;18.80;99.90
14397;DHT22;50653;47.810;13.022;2022-10-16T12:37:26;18.90;99.90
14397;DHT22;50653;47.810;13.022;2022-10-16T12:39:54;18.80;99.90
14397;DHT22;50653;47.810;13.022;2022-10-16T12:44:51;18.80;99.90
14397;DHT22;50653;47.810;13.022;2022-10-16T12:47:21;18.90;99.90
14397;DHT22;50653;47.810;13.022;2022-10-16T12:49:54;18.90;99.90
14397;DHT22;50653;47.810;13.022;2022-10-16T12:54:56;19.10;99.90
14397;DHT22;50653;47.810;13.022;2022-10-16T13:14:09;19.20;99.90
14397;DHT22;50653;47.810;13.022;2022-10-16T13:25:17;19.30;99.90
14397;DHT22;50653;47.810;13.022;2022-10-16T13:27:55;19.30;99.90
14397;DHT22;50653;47.810;13.022;2022-10-16T13:30:29;19.50;99.90
14397;DHT22;50653;47.810;13.022;2022-10-16T13:33:13;19.50;99.90
14397;DHT22;50653;47.810;13.022;2022-10-16T13:35:51;19.90;99.90
14397;DHT22;50653;47.810;13.022;2022-10-16T13:38:20;20.10;99.90
14397;DHT22;50653;47.810;13.022;2022-10-16T13:48:40;20.00;99.20
14397;DHT22;50653;47.810;13.022;2022-10-16T13:51:16;20.00;98.80
14397;DHT22;50653;47.810;13.022;2022-10-16T13:53:43;20.40;99.90
14397;DHT22;50653;47.810;13.022;2022-10-16T13:56:14;20.40;98.70
14397;DHT22;50653;47.810;13.022;2022-10-16T13:58:40;20.40;99.90
14397;DHT22;50653;47.810;13.022;2022-10-16T14:01:19;20.60;99.40
14397;DHT22;50653;47.810;13.022;2022-10-16T14:03:46;20.90;96.60
14397;DHT22;50653;47.810;13.022;2022-10-16T14:06:15;21.00;97.70
14397;DHT22;50653;47.810;13.022;2022-10-16T14:09:05;21.00;97.20
14397;DHT22;50653;47.810;13.022;2022-10-16T14:11:32;20.80;99.90
14397;DHT22;50653;47.810;13.022;2022-10-16T14:13:59;21.30;94.90
14397;DHT22;50653;47.810;13.022;2022-10-16T14:16:28;21.10;99.90
14397;DHT22;50653;47.810;13.022;2022-10-16T14:19:04;21.50;96.60
14397;DHT22;50653;47.810;13.022;2022-10-16T14:21:33;21.30;95.20
14397;DHT22;50653;47.810;13.022;2022-10-16T14:23:59;21.00;98.20
14397;DHT22;50653;47.810;13.022;2022-10-16T14:26:41;20.80;99.90
14397;DHT22;50653;47.810;13.022;2022-10-16T14:29:17;20.60;99.50
14397;DHT22;50653;47.810;13.022;2022-10-16T14:31:57;20.90;99.90
14397;DHT22;50653;47.810;13.022;2022-10-16T14:34:34;21.20;97.60
14397;DHT22;50653;47.810;13.022;2022-10-16T14:37:05;21.50;96.40
14397;DHT22;50653;47.810;13.022;2022-10-16T14:39:33;21.50;97.40
14397;DHT22;50653;47.810;13.022;2022-10-16T14:41:59;22.10;92.10
14397;DHT22;50653;47.810;13.022;2022-10-16T14:44:31;22.50;90.30
14397;DHT22;50653;47.810;13.022;2022-10-16T14:46:57;22.30;89.30
14397;DHT22;50653;47.810;13.022;2022-10-16T14:49:24;22.10;93.40
14397;DHT22;50653;47.810;13.022;2022-10-16T14:51:51;21.90;93.70
14397;DHT22;50653;47.810;13.022;2022-10-16T14:54:18;21.80;92.40
14397;DHT22;50653;47.810;13.022;2022-10-16T14:56:50;21.80;88.90
14397;DHT22;50653;47.810;13.022;2022-10-16T14:59:27;22.00;85.80
14397;DHT22;50653;47.810;13.022;2022-10-16T15:01:54;22.10;83.90
14397;DHT22;50653;47.810;13.022;2022-10-16T15:04:20;22.20;86.50
14397;DHT22;50653;47.810;13.022;2022-10-16T15:06:45;21.90;86.40
14397;DHT22;50653;47.810;13.022;2022-10-16T15:09:11;21.90;85.50
14397;DHT22;50653;47.810;13.022;2022-10-16T15:11:37;22.00;84.40
14397;DHT22;50653;47.810;13.022;2022-10-16T15:14:03;22.00;84.80
14397;DHT22;50653;47.810;13.022;2022-10-16T15:16:29;22.00;84.10
14397;DHT22;50653;47.810;13.022;2022-10-16T15:18:55;22.00;84.80
14397;DHT22;50653;47.810;13.022;2022-10-16T15:21:25;22.10;84.10
14397;DHT22;50653;47.810;13.022;2022-10-16T15:23:51;22.20;85.00
14397;DHT22;50653;47.810;13.022;2022-10-16T15:26:17;21.90;90.80
14397;DHT22;50653;47.810;13.022;2022-10-16T15:28:43;21.90;85.90
14397;DHT22;50653;47.810;13.022;2022-10-16T15:31:08;21.70;90.50
14397;DHT22;50653;47.810;13.022;2022-10-16T15:33:34;21.60;91.30
14397;DHT22;50653;47.810;13.022;2022-10-16T15:36:01;21.60;90.30
14397;DHT22;50653;47.810;13.022;2022-10-16T15:38:28;21.60;89.70
14397;DHT22;50653;47.810;13.022;2022-10-16T15:40:54;21.60;90.60
14397;DHT22;50653;47.810;13.022;2022-10-16T15:43:20;21.50;92.80
14397;DHT22;50653;47.810;13.022;2022-10-16T15:46:03;21.50;90.70
14397;DHT22;50653;47.810;13.022;2022-10-16T15:48:30;21.40;91.20
14397;DHT22;50653;47.810;13.022;2022-10-16T15:50:56;21.20;93.30
14397;DHT22;50653;47.810;13.022;2022-10-16T15:53:21;21.30;91.40
14397;DHT22;50653;47.810;13.022;2022-10-16T15:55:47;21.50;91.40
14397;DHT22;50653;47.810;13.022;2022-10-16T15:58:13;21.50;91.80
14397;DHT22;50653;47.810;13.022;2022-10-16T16:00:38;21.50;91.80
14397;DHT22;50653;47.810;13.022;2022-10-16T16:03:04;21.40;92.40
14397;DHT22;50653;47.810;13.022;2022-10-16T16:05:30;21.40;92.40
14397;DHT22;50653;47.810;13.022;2022-10-16T16:07:56;21.30;92.80
14397;DHT22;50653;47.810;13.022;2022-10-16T16:10:22;21.10;94.70
14397;DHT22;50653;47.810;13.022;2022-10-16T16:12:49;21.00;93.90
14397;DHT22;50653;47.810;13.022;2022-10-16T16:15:21;21.00;94.40
14397;DHT22;50653;47.810;13.022;2022-10-16T16:17:47;21.00;94.90
14397;DHT22;50653;47.810;13.022;2022-10-16T16:20:13;20.90;95.50
14397;DHT22;50653;47.810;13.022;2022-10-16T16:22:39;20.80;95.20
14397;DHT22;50653;47.810;13.022;2022-10-16T16:25:05;20.70;95.60
14397;DHT22;50653;47.810;13.022;2022-10-16T16:27:30;20.70;95.80
14397;DHT22;50653;47.810;13.022;2022-10-16T16:29:59;20.60;96.10
14397;DHT22;50653;47.810;13.022;2022-10-16T16:32:25;20.50;96.60
14397;DHT22;50653;47.810;13.022;2022-10-16T16:34:50;20.60;96.60
14397;DHT22;50653;47.810;13.022;2022-10-16T16:37:16;20.50;96.90
14397;DHT22;50653;47.810;13.022;2022-10-16T16:39:42;20.40;97.30
14397;DHT22;50653;47.810;13.022;2022-10-16T16:42:08;20.30;97.30
14397;DHT22;50653;47.810;13.022;2022-10-16T16:44:35;20.30;97.80
14397;DHT22;50653;47.810;13.022;2022-10-16T16:47:02;20.20;97.80
14397;DHT22;50653;47.810;13.022;2022-10-16T16:49:28;20.20;98.00
14397;DHT22;50653;47.810;13.022;2022-10-16T16:51:54;20.00;97.80
14397;DHT22;50653;47.810;13.022;2022-10-16T16:54:19;20.00;97.80
14397;DHT22;50653;47.810;13.022;2022-10-16T16:56:45;20.00;97.90
14397;DHT22;50653;47.810;13.022;2022-10-16T16:59:16;19.90;98.30
14397;DHT22;50653;47.810;13.022;2022-10-16T17:01:43;19.90;98.20
14397;DHT22;50653;47.810;13.022;2022-10-16T17:04:09;19.80;97.90
14397;DHT22;50653;47.810;13.022;2022-10-16T17:06:36;19.80;98.00
14397;DHT22;50653;47.810;13.022;2022-10-16T17:09:04;19.80;98.20
14397;DHT22;50653;47.810;13.022;2022-10-16T17:11:30;19.70;98.30
14397;DHT22;50653;47.810;13.022;2022-10-16T17:13:57;19.60;98.10
14397;DHT22;50653;47.810;13.022;2022-10-16T17:16:26;19.50;97.90
14397;DHT22;50653;47.810;13.022;2022-10-16T17:18:52;19.50;98.00
14397;DHT22;50653;47.810;13.022;2022-10-16T17:21:19;19.50;98.30
14397;DHT22;50653;47.810;13.022;2022-10-16T17:23:44;19.50;98.10
14397;DHT22;50653;47.810;13.022;2022-10-16T17:26:15;19.40;98.30
14397;DHT22;50653;47.810;13.022;2022-10-16T17:28:43;19.40;98.30